Time;durP1;ratioP1;P1;durP2;ratioP2;P2;SDS_P1;SDS_P2;PMS_P1;PMS_P2;Temp;Humidity;BMP_temperature;BMP_pressure;BME280_temperature;BME280_humidity;BME280_pressure;Samples;Min_cycle;Max_cycle;Signal;HPM_P1;HPM_P2
2022/12/12 00:01:40;;;;;;;42.13;22.70;;;;;;;;;;6198087;23;20179;-86
2022/12/12 00:04:06;;;;;;;41.38;21.63;;;;;;;;;;6196013;23;20637;-87
2022/12/12 00:06:32;;;;;;;41.65;22.80;;;;;;;;;;6189303;23;20251;-86
2022/12/12 00:08:59;;;;;;;37.15;20.38;;;;;;;;;;6192078;23;20152;-86
2022/12/12 00:11:25;;;;;;;38.45;20.65;;;;;;;;;;6189917;23;20226;-87
2022/12/12 00:13:51;;;;;;;34.70;18.73;;;;;;;;;;6198554;23;20154;-88
2022/12/12 00:16:18;;;;;;;40.17;22.13;;;;;;;;;;6193718;23;20831;-87
2022/12/12 00:18:44;;;;;;;42.05;21.98;;;;;;;;;;6190300;23;20235;-87
2022/12/12 00:21:13;;;;;;;41.53;22.00;;;;;;;;;;6193662;23;20155;-85
2022/12/12 00:23:40;;;;;;;40.17;20.65;;;;;;;;;;6198073;23;20153;-89
2022/12/12 00:26:07;;;;;;;42.00;21.65;;;;;;;;;;6196676;23;20132;-87
2022/12/12 00:28:36;;;;;;;46.80;22.15;;;;;;;;;;6198144;23;20164;-88
2022/12/12 00:31:03;;;;;;;36.70;19.77;;;;;;;;;;6200227;23;20271;-88
2022/12/12 00:33:29;;;;;;;33.13;18.52;;;;;;;;;;6205779;23;20150;-87
2022/12/12 00:35:55;;;;;;;44.60;22.50;;;;;;;;;;6204164;23;20191;-87
2022/12/12 00:38:22;;;;;;;39.83;21.95;;;;;;;;;;6206324;23;20212;-88
2022/12/12 00:40:48;;;;;;;42.90;22.85;;;;;;;;;;6204481;23;20152;-88
2022/12/12 00:43:14;;;;;;;37.00;21.90;;;;;;;;;;6173440;23;20303;-87
2022/12/12 00:45:40;;;;;;;41.30;22.88;;;;;;;;;;6194279;23;20243;-88
2022/12/12 00:48:10;;;;;;;34.58;18.77;;;;;;;;;;6201430;23;20152;-88
2022/12/12 00:50:43;;;;;;;33.10;20.13;;;;;;;;;;6206666;23;20187;-89
2022/12/12 00:53:12;;;;;;;40.60;21.92;;;;;;;;;;6208982;23;20144;-88
2022/12/12 00:55:43;;;;;;;42.40;21.23;;;;;;;;;;6209836;23;20263;-89
2022/12/12 00:58:10;;;;;;;39.85;21.85;;;;;;;;;;6211138;23;20124;-84
2022/12/12 01:00:39;;;;;;;50.50;22.15;;;;;;;;;;6196033;23;20132;-87
2022/12/12 01:03:05;;;;;;;43.03;22.02;;;;;;;;;;6196875;23;20136;-87
2022/12/12 01:05:31;;;;;;;39.63;22.25;;;;;;;;;;6193020;23;20148;-87
2022/12/12 01:07:57;;;;;;;49.60;24.70;;;;;;;;;;6194306;23;20186;-87
2022/12/12 01:10:29;;;;;;;34.75;18.67;;;;;;;;;;6185664;23;20407;-88
2022/12/12 01:12:55;;;;;;;51.47;24.08;;;;;;;;;;6170823;23;20291;-87
2022/12/12 01:15:21;;;;;;;42.40;21.40;;;;;;;;;;6196797;23;20163;-86
2022/12/12 01:17:47;;;;;;;46.88;22.55;;;;;;;;;;6205092;23;20648;-87
2022/12/12 01:20:20;;;;;;;50.28;22.85;;;;;;;;;;6207486;23;20144;-86
2022/12/12 01:22:46;;;;;;;43.25;21.65;;;;;;;;;;6196609;23;20148;-85
2022/12/12 01:25:16;;;;;;;42.17;21.85;;;;;;;;;;6185454;23;20170;-86
2022/12/12 01:27:42;;;;;;;39.72;20.98;;;;;;;;;;6180349;23;20479;-85
2022/12/12 01:30:08;;;;;;;47.15;22.85;;;;;;;;;;6155476;23;20622;-84
2022/12/12 01:32:34;;;;;;;40.42;22.30;;;;;;;;;;6184652;23;20160;-87
2022/12/12 01:35:01;;;;;;;43.78;20.55;;;;;;;;;;6187797;23;20148;-84
2022/12/12 01:37:26;;;;;;;40.28;20.30;;;;;;;;;;6154503;23;20632;-86
2022/12/12 01:39:53;;;;;;;31.67;19.63;;;;;;;;;;6183012;23;20156;-85
2022/12/12 01:42:19;;;;;;;40.72;19.88;;;;;;;;;;6151248;23;20403;-85
2022/12/12 01:44:49;;;;;;;34.83;20.27;;;;;;;;;;6180781;23;20183;-84
2022/12/12 01:47:19;;;;;;;34.60;20.73;;;;;;;;;;6177447;23;20155;-85
2022/12/12 01:49:51;;;;;;;40.90;20.77;;;;;;;;;;6181144;23;20236;-86
2022/12/12 01:52:19;;;;;;;35.70;19.98;;;;;;;;;;6182152;23;20222;-87
2022/12/12 01:54:48;;;;;;;39.38;19.00;;;;;;;;;;6187740;23;20158;-83
2022/12/12 01:57:16;;;;;;;36.85;20.80;;;;;;;;;;6188021;23;20160;-85
2022/12/12 01:59:43;;;;;;;30.73;19.42;;;;;;;;;;6182640;23;20491;-85
2022/12/12 02:02:09;;;;;;;34.42;20.67;;;;;;;;;;6184186;23;20320;-86
2022/12/12 02:04:37;;;;;;;41.63;21.27;;;;;;;;;;6185925;23;20190;-85
2022/12/12 02:07:03;;;;;;;34.53;17.35;;;;;;;;;;6182338;23;20149;-84
2022/12/12 02:09:29;;;;;;;36.40;20.45;;;;;;;;;;6187680;23;20199;-83
2022/12/12 02:11:56;;;;;;;35.35;19.77;;;;;;;;;;6184352;23;20203;-86
2022/12/12 02:14:28;;;;;;;38.25;22.17;;;;;;;;;;6179229;23;20202;-85
2022/12/12 02:17:02;;;;;;;36.25;18.73;;;;;;;;;;6187961;23;20132;-85
2022/12/12 02:19:46;;;;;;;34.90;18.13;;;;;;;;;;6191469;23;20159;-86
2022/12/12 02:22:31;;;;;;;30.05;19.23;;;;;;;;;;6203318;23;20156;-88
2022/12/12 02:24:57;;;;;;;36.55;20.15;;;;;;;;;;6201080;23;20136;-86
2022/12/12 02:27:41;;;;;;;35.43;20.27;;;;;;;;;;6181263;23;20349;-85
2022/12/12 02:33:40;;;;;;;29.65;17.08;;;;;;;;;;6150228;23;20152;-87
2022/12/12 02:36:19;;;;;;;35.17;20.30;;;;;;;;;;6151306;23;20174;-88
2022/12/12 02:38:45;;;;;;;35.03;19.88;;;;;;;;;;6147959;23;20208;-88
2022/12/12 02:41:14;;;;;;;33.87;19.57;;;;;;;;;;6140437;23;20157;-85
2022/12/12 02:43:49;;;;;;;37.00;21.27;;;;;;;;;;6137326;23;20391;-87
2022/12/12 02:46:15;;;;;;;34.75;20.30;;;;;;;;;;6140468;23;20157;-85
2022/12/12 02:48:44;;;;;;;27.67;18.97;;;;;;;;;;6139361;23;20183;-86
2022/12/12 02:51:11;;;;;;;31.02;16.40;;;;;;;;;;6142575;23;20428;-85
2022/12/12 02:53:38;;;;;;;29.50;19.23;;;;;;;;;;6142951;23;20150;-87
2022/12/12 02:56:05;;;;;;;34.92;19.83;;;;;;;;;;6144240;23;20229;-87
2022/12/12 02:58:35;;;;;;;30.85;18.38;;;;;;;;;;6143527;23;20153;-86
2022/12/12 03:01:24;;;;;;;37.65;18.95;;;;;;;;;;6150624;23;20146;-88
2022/12/12 03:09:17;;;;;;;35.13;19.27;;;;;;;;;;6144085;23;20191;-88
2022/12/12 03:12:02;;;;;;;34.08;17.25;;;;;;;;;;6241122;23;20190;-88
2022/12/12 03:14:31;;;;;;;31.90;17.25;;;;;;;;;;6207795;23;20151;-84
2022/12/12 03:17:13;;;;;;;37.17;19.17;;;;;;;;;;6232184;23;20219;-87
2022/12/12 03:19:43;;;;;;;35.50;18.48;;;;;;;;;;6240663;23;20147;-87
2022/12/12 03:22:09;;;;;;;33.97;18.92;;;;;;;;;;6215050;23;20159;-87
2022/12/12 03:24:44;;;;;;;35.45;19.95;;;;;;;;;;6242636;22;20150;-87
2022/12/12 03:27:12;;;;;;;37.80;20.25;;;;;;;;;;6236917;23;20150;-87
2022/12/12 03:29:40;;;;;;;37.30;20.60;;;;;;;;;;6191516;23;20635;-87
2022/12/12 03:32:08;;;;;;;32.30;18.70;;;;;;;;;;6182021;23;20135;-87
2022/12/12 03:34:41;;;;;;;34.70;19.58;;;;;;;;;;6208536;23;20140;-87
2022/12/12 03:37:11;;;;;;;33.67;18.95;;;;;;;;;;6207973;23;20144;-87
2022/12/12 03:39:49;;;;;;;30.10;16.75;;;;;;;;;;6183080;23;20171;-88
2022/12/12 03:45:18;;;;;;;32.30;18.65;;;;;;;;;;6173626;23;20159;-88
2022/12/12 03:47:45;;;;;;;32.47;18.00;;;;;;;;;;6210214;23;20112;-87
2022/12/12 03:50:21;;;;;;;39.83;20.33;;;;;;;;;;6183000;23;20180;-84
2022/12/12 03:52:59;;;;;;;34.67;20.75;;;;;;;;;;6207971;23;20190;-86
2022/12/12 03:55:34;;;;;;;36.00;21.70;;;;;;;;;;6195120;23;20156;-86
2022/12/12 03:58:04;;;;;;;31.70;18.75;;;;;;;;;;6190780;23;20152;-86
2022/12/12 04:00:33;;;;;;;33.05;16.92;;;;;;;;;;6197074;23;20533;-87
2022/12/12 04:03:14;;;;;;;36.45;20.23;;;;;;;;;;6208417;23;20141;-87
2022/12/12 04:06:25;;;;;;;30.48;18.10;;;;;;;;;;6209363;23;20118;-87
2022/12/12 04:08:27;;;;;;;31.55;18.08;;;;;;;;;;6211008;23;20174;-86
2022/12/12 04:13:48;;;;;;;31.42;17.40;;;;;;;;;;6209930;23;20166;-87
2022/12/12 04:16:17;;;;;;;30.02;18.38;;;;;;;;;;6211591;23;20129;-86
2022/12/12 04:18:49;;;;;;;27.05;17.63;;;;;;;;;;6205535;23;20153;-86
2022/12/12 04:24:00;;;;;;;33.05;18.85;;;;;;;;;;6202302;23;20148;-86
2022/12/12 04:26:39;;;;;;;28.13;16.35;;;;;;;;;;6203779;23;20159;-86
2022/12/12 04:29:24;;;;;;;37.63;18.25;;;;;;;;;;6137875;23;20179;-85
2022/12/12 04:32:09;;;;;;;33.88;18.90;;;;;;;;;;6187872;23;20175;-85
2022/12/12 04:34:38;;;;;;;32.08;18.48;;;;;;;;;;6185725;23;20464;-86
2022/12/12 04:37:06;;;;;;;34.33;19.65;;;;;;;;;;6189773;23;20153;-86
2022/12/12 04:39:32;;;;;;;32.75;19.70;;;;;;;;;;6184992;23;20152;-85
2022/12/12 04:42:00;;;;;;;31.73;19.23;;;;;;;;;;6190303;23;20163;-84
2022/12/12 04:44:28;;;;;;;46.92;21.20;;;;;;;;;;6194792;23;20153;-85
2022/12/12 04:46:55;;;;;;;42.95;24.13;;;;;;;;;;6185346;23;20159;-87
2022/12/12 04:49:25;;;;;;;48.22;27.40;;;;;;;;;;6186507;23;20199;-86
2022/12/12 04:51:53;;;;;;;44.00;22.27;;;;;;;;;;6193315;23;20172;-84
2022/12/12 04:54:19;;;;;;;38.65;21.25;;;;;;;;;;6186446;23;20255;-85
2022/12/12 04:56:48;;;;;;;36.10;20.17;;;;;;;;;;6199306;23;20148;-86
2022/12/12 04:59:14;;;;;;;35.35;20.02;;;;;;;;;;6198793;23;20410;-85
2022/12/12 05:02:16;;;;;;;42.67;22.77;;;;;;;;;;6199285;23;20152;-86
2022/12/12 05:04:48;;;;;;;49.28;24.58;;;;;;;;;;6074465;23;20174;-85
2022/12/12 05:07:21;;;;;;;41.08;25.00;;;;;;;;;;6175657;23;20152;-87
2022/12/12 05:09:47;;;;;;;36.25;22.48;;;;;;;;;;6185374;23;20194;-86
2022/12/12 05:12:16;;;;;;;54.00;21.50;;;;;;;;;;6194062;23;20195;-85
2022/12/12 05:14:42;;;;;;;40.00;21.65;;;;;;;;;;6193960;23;20228;-86
2022/12/12 05:17:13;;;;;;;43.70;23.05;;;;;;;;;;6195300;23;20153;-84
2022/12/12 05:19:39;;;;;;;34.30;20.67;;;;;;;;;;6184975;23;20273;-87
2022/12/12 05:22:06;;;;;;;36.53;20.70;;;;;;;;;;6183919;23;20235;-84
2022/12/12 05:24:32;;;;;;;40.97;22.27;;;;;;;;;;6152532;23;20219;-86
2022/12/12 05:26:58;;;;;;;36.90;20.75;;;;;;;;;;6190588;23;20694;-87
2022/12/12 05:29:24;;;;;;;36.45;18.15;;;;;;;;;;6177679;23;20242;-84
2022/12/12 05:31:50;;;;;;;38.47;20.48;;;;;;;;;;6179260;23;20172;-85
2022/12/12 05:34:16;;;;;;;30.45;19.55;;;;;;;;;;6175615;23;20237;-85
2022/12/12 05:36:42;;;;;;;42.17;23.42;;;;;;;;;;6179956;23;20151;-85
2022/12/12 05:39:08;;;;;;;44.30;23.07;;;;;;;;;;6172145;23;20155;-85
2022/12/12 05:41:34;;;;;;;46.37;22.17;;;;;;;;;;6176826;23;20368;-85
2022/12/12 05:44:00;;;;;;;48.47;27.30;;;;;;;;;;6174316;23;20825;-85
2022/12/12 05:46:26;;;;;;;44.03;24.60;;;;;;;;;;6180624;23;20379;-85
2022/12/12 05:48:52;;;;;;;40.57;21.30;;;;;;;;;;6174189;23;20364;-85
2022/12/12 05:51:20;;;;;;;41.07;20.67;;;;;;;;;;6177285;23;20772;-85
2022/12/12 05:53:46;;;;;;;49.60;22.38;;;;;;;;;;6172183;23;20375;-85
2022/12/12 05:56:13;;;;;;;43.83;20.40;;;;;;;;;;6178508;23;20180;-86
2022/12/12 05:58:39;;;;;;;37.50;20.95;;;;;;;;;;6175242;23;20152;-85
2022/12/12 06:01:06;;;;;;;52.78;27.63;;;;;;;;;;6179983;23;20144;-86
2022/12/12 06:03:32;;;;;;;68.68;37.80;;;;;;;;;;6181323;23;20156;-84
2022/12/12 06:05:58;;;;;;;56.35;33.13;;;;;;;;;;6183537;23;20160;-83
2022/12/12 06:08:25;;;;;;;47.25;25.42;;;;;;;;;;6177240;23;20180;-84
2022/12/12 06:10:51;;;;;;;45.80;26.67;;;;;;;;;;6179960;23;20188;-86
2022/12/12 06:13:17;;;;;;;36.90;21.83;;;;;;;;;;6168663;23;20160;-87
2022/12/12 06:15:43;;;;;;;31.95;20.52;;;;;;;;;;6185539;23;20282;-84
2022/12/12 06:18:11;;;;;;;43.60;21.27;;;;;;;;;;6185656;23;20626;-85
2022/12/12 06:20:37;;;;;;;35.83;19.50;;;;;;;;;;6183651;23;20156;-86
2022/12/12 06:23:03;;;;;;;41.72;21.13;;;;;;;;;;6184047;23;20672;-86
2022/12/12 06:25:29;;;;;;;32.00;16.83;;;;;;;;;;6158682;23;20148;-86
2022/12/12 06:27:55;;;;;;;28.67;18.50;;;;;;;;;;6183096;23;20378;-83
2022/12/12 06:30:21;;;;;;;32.03;18.55;;;;;;;;;;6171401;23;20580;-83
2022/12/12 06:32:47;;;;;;;31.77;18.90;;;;;;;;;;6180090;23;20210;-85
2022/12/12 06:35:13;;;;;;;36.60;19.90;;;;;;;;;;6175003;23;20449;-84
2022/12/12 06:37:39;;;;;;;34.00;18.20;;;;;;;;;;6152107;23;20578;-81
2022/12/12 06:40:06;;;;;;;48.33;20.08;;;;;;;;;;6145367;23;20402;-81
2022/12/12 06:42:32;;;;;;;38.35;19.38;;;;;;;;;;6152749;23;20483;-84
2022/12/12 06:44:58;;;;;;;27.47;15.60;;;;;;;;;;6184596;23;20575;-86
2022/12/12 06:47:26;;;;;;;34.55;19.15;;;;;;;;;;6201898;23;20386;-82
2022/12/12 06:49:52;;;;;;;35.22;19.58;;;;;;;;;;6161248;23;20152;-82
2022/12/12 06:52:18;;;;;;;34.03;18.30;;;;;;;;;;6188973;23;20166;-82
2022/12/12 06:54:45;;;;;;;34.80;19.55;;;;;;;;;;6183486;23;20151;-78
2022/12/12 06:57:13;;;;;;;34.30;18.80;;;;;;;;;;6153938;23;20155;-83
2022/12/12 06:59:39;;;;;;;37.17;20.15;;;;;;;;;;6175204;23;20167;-83
2022/12/12 07:02:05;;;;;;;32.20;19.80;;;;;;;;;;6176869;23;20199;-83
2022/12/12 07:04:32;;;;;;;31.70;17.40;;;;;;;;;;6173178;23;20785;-83
2022/12/12 07:06:58;;;;;;;39.60;19.35;;;;;;;;;;6177541;23;20148;-81
2022/12/12 07:09:25;;;;;;;41.55;21.60;;;;;;;;;;6170836;23;20637;-79
2022/12/12 07:11:51;;;;;;;63.92;32.22;;;;;;;;;;6178836;23;20180;-82
2022/12/12 07:14:17;;;;;;;45.60;24.33;;;;;;;;;;6173122;23;20156;-80
2022/12/12 07:16:43;;;;;;;50.83;23.20;;;;;;;;;;6177479;23;20263;-84
2022/12/12 07:19:09;;;;;;;56.40;25.13;;;;;;;;;;6172357;23;20853;-83
2022/12/12 07:21:35;;;;;;;37.53;20.83;;;;;;;;;;6176966;23;20383;-82
2022/12/12 07:24:01;;;;;;;38.75;20.55;;;;;;;;;;6172528;23;20203;-82
2022/12/12 07:26:27;;;;;;;45.17;27.00;;;;;;;;;;6177063;23;20210;-83
2022/12/12 07:28:53;;;;;;;47.92;27.13;;;;;;;;;;6171982;23;20251;-82
2022/12/12 07:31:20;;;;;;;33.85;21.02;;;;;;;;;;6175630;23;20171;-82
2022/12/12 07:33:47;;;;;;;50.45;25.70;;;;;;;;;;6175942;23;20199;-79
2022/12/12 07:36:14;;;;;;;64.10;27.65;;;;;;;;;;6175789;23;20156;-83
2022/12/12 07:38:41;;;;;;;41.75;24.30;;;;;;;;;;6150558;23;20179;-83
2022/12/12 07:41:08;;;;;;;43.80;22.58;;;;;;;;;;6183228;23;20163;-82
2022/12/12 07:43:35;;;;;;;42.97;21.65;;;;;;;;;;6180881;23;20239;-86
2022/12/12 07:46:01;;;;;;;41.20;21.60;;;;;;;;;;6156672;23;20613;-85
2022/12/12 07:48:28;;;;;;;36.30;18.70;;;;;;;;;;6162747;23;20179;-86
2022/12/12 07:50:59;;;;;;;52.80;20.17;;;;;;;;;;6157389;23;20435;-85
2022/12/12 07:53:26;;;;;;;38.40;17.83;;;;;;;;;;6181463;23;20132;-84
2022/12/12 07:55:52;;;;;;;36.67;18.52;;;;;;;;;;6193001;23;20128;-86
2022/12/12 07:58:21;;;;;;;35.63;19.13;;;;;;;;;;6201193;23;20163;-85
2022/12/12 08:00:50;;;;;;;36.53;20.40;;;;;;;;;;6175932;23;20144;-84
2022/12/12 08:05:51;;;;;;;41.60;22.45;;;;;;;;;;6181111;23;20831;-84
2022/12/12 08:08:21;;;;;;;43.15;22.10;;;;;;;;;;6160918;23;20640;-89
2022/12/12 08:10:54;;;;;;;37.50;22.25;;;;;;;;;;6167502;23;20184;-88
2022/12/12 08:13:20;;;;;;;42.30;21.83;;;;;;;;;;6165278;23;20167;-89
2022/12/12 08:15:49;;;;;;;30.90;18.02;;;;;;;;;;6160543;23;20171;-87
2022/12/12 08:18:21;;;;;;;40.03;20.25;;;;;;;;;;6158316;23;20155;-89
2022/12/12 08:20:47;;;;;;;39.40;20.30;;;;;;;;;;6156633;23;20231;-87
2022/12/12 08:23:13;;;;;;;46.72;22.05;;;;;;;;;;6157586;23;20612;-88
2022/12/12 08:25:44;;;;;;;43.13;22.20;;;;;;;;;;6183484;23;20163;-90
2022/12/12 08:28:13;;;;;;;40.45;21.80;;;;;;;;;;6158682;23;20198;-88
2022/12/12 08:30:44;;;;;;;35.00;21.02;;;;;;;;;;6158098;23;20723;-87
2022/12/12 08:33:13;;;;;;;35.35;19.90;;;;;;;;;;6166726;23;20140;-87
2022/12/12 08:35:42;;;;;;;44.42;22.95;;;;;;;;;;6158758;23;20168;-88
2022/12/12 08:38:14;;;;;;;46.60;22.70;;;;;;;;;;6156732;23;20160;-87
2022/12/12 08:40:40;;;;;;;42.25;22.08;;;;;;;;;;6152380;23;20225;-89
2022/12/12 08:43:07;;;;;;;35.23;19.43;;;;;;;;;;6150499;23;20633;-89
2022/12/12 08:45:33;;;;;;;45.78;23.92;;;;;;;;;;6151824;23;20406;-89
2022/12/12 08:47:59;;;;;;;35.80;22.65;;;;;;;;;;6153471;23;20264;-90
2022/12/12 08:50:25;;;;;;;32.73;19.67;;;;;;;;;;6150657;23;20649;-89
2022/12/12 08:52:51;;;;;;;44.53;20.73;;;;;;;;;;6153766;23;20526;-88
2022/12/12 08:55:17;;;;;;;35.50;20.75;;;;;;;;;;6148177;23;20773;-90
2022/12/12 08:57:43;;;;;;;33.53;18.75;;;;;;;;;;6154645;23;20188;-88
2022/12/12 09:00:09;;;;;;;35.73;18.90;;;;;;;;;;6149954;23;20167;-87
2022/12/12 09:02:36;;;;;;;30.77;19.10;;;;;;;;;;6152997;23;20393;-89
2022/12/12 09:05:01;;;;;;;33.40;18.83;;;;;;;;;;6148771;23;20191;-88
2022/12/12 09:07:28;;;;;;;39.35;17.05;;;;;;;;;;6165718;23;20711;-89
2022/12/12 09:09:53;;;;;;;26.50;17.30;;;;;;;;;;6166823;23;20168;-88
2022/12/12 09:12:19;;;;;;;41.97;19.60;;;;;;;;;;6190782;23;20235;-86
2022/12/12 09:14:45;;;;;;;33.47;20.07;;;;;;;;;;6153484;23;20449;-87
2022/12/12 09:17:11;;;;;;;30.20;16.75;;;;;;;;;;6154956;23;20399;-87
2022/12/12 09:19:37;;;;;;;28.60;18.23;;;;;;;;;;6151372;23;20156;-88
2022/12/12 09:22:03;;;;;;;27.43;16.43;;;;;;;;;;6153878;23;20485;-89
2022/12/12 09:24:33;;;;;;;22.88;14.93;;;;;;;;;;6148993;23;20779;-85
2022/12/12 09:27:06;;;;;;;40.03;19.40;;;;;;;;;;6172582;23;20230;-87
2022/12/12 09:29:43;;;;;;;31.50;17.92;;;;;;;;;;6133516;23;20199;-85
2022/12/12 09:32:12;;;;;;;26.52;15.73;;;;;;;;;;6142417;23;20157;-83
2022/12/12 09:37:15;;;;;;;23.52;15.20;;;;;;;;;;6170795;23;20185;-84
2022/12/12 09:39:48;;;;;;;22.17;14.48;;;;;;;;;;6171940;23;20590;-85
2022/12/12 09:42:25;;;;;;;18.03;14.30;;;;;;;;;;6137051;23;20152;-86
2022/12/12 09:44:57;;;;;;;21.10;13.87;;;;;;;;;;6159261;23;20380;-86
2022/12/12 09:47:46;;;;;;;20.75;15.02;;;;;;;;;;6136468;23;20402;-83
2022/12/12 09:50:31;;;;;;;20.00;14.20;;;;;;;;;;6158702;23;20157;-85
2022/12/12 09:53:06;;;;;;;16.02;14.05;;;;;;;;;;6176145;23;20157;-84
2022/12/12 09:58:21;;;;;;;21.37;14.17;;;;;;;;;;6172805;23;20603;-88
2022/12/12 10:01:08;;;;;;;15.93;12.23;;;;;;;;;;6157873;23;20395;-88
2022/12/12 10:03:59;;;;;;;15.43;11.73;;;;;;;;;;6148931;23;20391;-87
2022/12/12 10:06:30;;;;;;;15.65;12.43;;;;;;;;;;6157167;23;20152;-90
2022/12/12 10:09:19;;;;;;;17.30;13.63;;;;;;;;;;6181478;23;20207;-85
2022/12/12 10:11:53;;;;;;;12.52;10.15;;;;;;;;;;6163641;23;20202;-86
2022/12/12 10:14:26;;;;;;;17.17;12.50;;;;;;;;;;6157654;23;20167;-83
2022/12/12 10:16:56;;;;;;;15.25;11.63;;;;;;;;;;6172380;23;20176;-85
2022/12/12 10:22:07;;;;;;;21.15;14.10;;;;;;;;;;6154172;23;20204;-90
2022/12/12 10:24:43;;;;;;;13.73;11.43;;;;;;;;;;6133965;23;20164;-88
2022/12/12 10:27:16;;;;;;;19.90;12.23;;;;;;;;;;6131713;23;20586;-89
2022/12/12 10:29:55;;;;;;;16.00;11.35;;;;;;;;;;6130272;23;20153;-89
2022/12/12 10:32:39;;;;;;;16.95;10.95;;;;;;;;;;6130615;23;20390;-91
2022/12/12 10:35:08;;;;;;;16.98;11.70;;;;;;;;;;6162308;23;20143;-89
2022/12/12 10:37:56;;;;;;;19.10;12.75;;;;;;;;;;6157697;23;20149;-89
2022/12/12 10:40:28;;;;;;;23.67;14.15;;;;;;;;;;6134769;23;20152;-89
2022/12/12 10:43:05;;;;;;;17.77;12.38;;;;;;;;;;6128265;23;20200;-90
2022/12/12 10:45:50;;;;;;;17.15;11.35;;;;;;;;;;6135557;23;20640;-87
2022/12/12 10:48:16;;;;;;;15.23;11.35;;;;;;;;;;6161041;23;20578;-87
2022/12/12 10:51:02;;;;;;;14.27;9.55;;;;;;;;;;6135873;23;20183;-91
2022/12/12 10:53:32;;;;;;;12.60;10.60;;;;;;;;;;6108062;23;20202;-90
2022/12/12 10:56:09;;;;;;;23.73;11.65;;;;;;;;;;6124921;23;20157;-90
2022/12/12 10:58:39;;;;;;;15.48;12.25;;;;;;;;;;6125721;23;20276;-90
2022/12/12 11:01:19;;;;;;;16.73;12.25;;;;;;;;;;6128373;23;20157;-88
2022/12/12 11:03:49;;;;;;;15.23;10.50;;;;;;;;;;6156577;23;20220;-91
2022/12/12 11:06:19;;;;;;;16.07;10.03;;;;;;;;;;6132056;23;20376;-90
2022/12/12 11:08:59;;;;;;;17.23;10.93;;;;;;;;;;6133999;23;20716;-91
2022/12/12 11:11:30;;;;;;;12.87;10.20;;;;;;;;;;6159336;23;20788;-88
2022/12/12 11:14:09;;;;;;;12.67;10.40;;;;;;;;;;6145216;23;20419;-89
2022/12/12 11:16:48;;;;;;;16.33;11.47;;;;;;;;;;6143669;23;20462;-90
2022/12/12 11:19:33;;;;;;;;;;;;;;;;;;;;;
2022/12/12 11:22:05;;;;;;;13.90;11.40;;;;;;;;;;6157730;23;20443;-90
2022/12/12 11:24:32;;;;;;;15.13;12.30;;;;;;;;;;6129320;23;20746;-89
2022/12/12 11:26:59;;;;;;;15.00;10.00;;;;;;;;;;6128422;23;20400;-90
2022/12/12 11:29:44;;;;;;;18.63;12.00;;;;;;;;;;6135132;23;20372;-91
2022/12/12 11:32:18;;;;;;;10.90;9.80;;;;;;;;;;6137306;23;20491;-91
2022/12/12 11:34:47;;;;;;;11.97;10.20;;;;;;;;;;6146353;23;20388;-88
2022/12/12 11:37:17;;;;;;;16.33;11.17;;;;;;;;;;6138378;23;20407;-90
2022/12/12 11:39:48;;;;;;;17.37;12.00;;;;;;;;;;6159959;23;20365;-90
2022/12/12 11:42:16;;;;;;;18.73;12.60;;;;;;;;;;6121860;23;20418;-88
2022/12/12 11:44:48;;;;;;;17.37;13.30;;;;;;;;;;6149680;23;20384;-90
2022/12/12 11:47:21;;;;;;;14.80;11.53;;;;;;;;;;6134732;23;20648;-91
2022/12/12 11:50:17;;;;;;;13.97;11.07;;;;;;;;;;6131182;23;20395;-88
2022/12/12 11:53:00;;;;;;;15.03;12.07;;;;;;;;;;6116398;23;20396;-89
2022/12/12 11:55:48;;;;;;;14.00;12.47;;;;;;;;;;6136279;23;20875;-89
2022/12/12 11:58:38;;;;;;;14.93;11.87;;;;;;;;;;6132307;23;20900;-90
2022/12/12 12:01:41;;;;;;;15.13;12.43;;;;;;;;;;6149269;23;20373;-90
2022/12/12 12:10:23;;;;;;;14.97;11.37;;;;;;;;;;6141409;23;20737;-84
2022/12/12 12:13:05;;;;;;;17.77;12.70;;;;;;;;;;6113492;23;20549;-84
2022/12/12 12:15:34;;;;;;;14.00;11.70;;;;;;;;;;6118935;23;20405;-82
2022/12/12 12:18:08;;;;;;;17.20;12.37;;;;;;;;;;6118222;23;20908;-81
2022/12/12 12:20:40;;;;;;;19.27;15.20;;;;;;;;;;6146944;23;20352;-82
2022/12/12 12:23:19;;;;;;;16.93;12.50;;;;;;;;;;6135795;23;20364;-81
2022/12/12 12:25:48;;;;;;;14.60;12.10;;;;;;;;;;6116707;23;20391;-81
2022/12/12 12:28:26;;;;;;;13.47;11.30;;;;;;;;;;6148020;23;20393;-83
2022/12/12 12:30:52;;;;;;;13.83;11.20;;;;;;;;;;6146480;23;20427;-83
2022/12/12 12:33:31;;;;;;;15.10;11.80;;;;;;;;;;6146759;23;20372;-80
2022/12/12 12:39:19;;;;;;;16.60;12.37;;;;;;;;;;6136905;23;20423;-83
2022/12/12 12:42:00;;;;;;;17.13;10.60;;;;;;;;;;6144272;23;20361;-83
2022/12/12 12:44:26;;;;;;;11.80;10.63;;;;;;;;;;6144241;23;20380;-79
2022/12/12 12:47:01;;;;;;;16.10;10.80;;;;;;;;;;6145586;23;20806;-79
2022/12/12 12:49:31;;;;;;;14.77;11.87;;;;;;;;;;6144332;23;20450;-80
2022/12/12 12:52:06;;;;;;;23.70;12.37;;;;;;;;;;6141715;23;20416;-80
2022/12/12 12:54:36;;;;;;;14.03;11.17;;;;;;;;;;6147958;23;20368;-82
2022/12/12 12:57:06;;;;;;;9.97;8.93;;;;;;;;;;6143613;23;20605;-82
2022/12/12 12:59:34;;;;;;;17.27;11.70;;;;;;;;;;6136033;23;20372;-83
2022/12/12 13:02:02;;;;;;;14.93;11.17;;;;;;;;;;6148288;23;20451;-86
2022/12/12 13:04:36;;;;;;;12.97;11.57;;;;;;;;;;6141505;23;20788;-79
2022/12/12 13:07:20;;;;;;;15.10;10.90;;;;;;;;;;6146269;23;20353;-80
2022/12/12 13:09:56;;;;;;;11.43;9.77;;;;;;;;;;6137667;23;20412;-81
2022/12/12 13:12:41;;;;;;;14.00;12.13;;;;;;;;;;6145445;23;20685;-81
2022/12/12 13:15:14;;;;;;;12.97;9.73;;;;;;;;;;6142773;23;20502;-81
2022/12/12 13:17:48;;;;;;;19.30;10.50;;;;;;;;;;6146691;23;20341;-79
2022/12/12 13:20:15;;;;;;;15.37;11.50;;;;;;;;;;6143006;23;20373;-81
2022/12/12 13:22:51;;;;;;;12.50;11.20;;;;;;;;;;6139541;23;20391;-80
2022/12/12 13:25:20;;;;;;;11.10;9.60;;;;;;;;;;6144785;23;20392;-80
2022/12/12 13:27:48;;;;;;;31.07;11.53;;;;;;;;;;6142740;23;20376;-81
2022/12/12 13:30:14;;;;;;;15.33;10.30;;;;;;;;;;6146979;23;20387;-82
2022/12/12 13:32:59;;;;;;;12.50;9.77;;;;;;;;;;6143595;23;20723;-81
2022/12/12 13:35:29;;;;;;;16.67;10.33;;;;;;;;;;6147720;23;20368;-80
2022/12/12 13:37:55;;;;;;;11.47;9.17;;;;;;;;;;6146017;23;20492;-84
2022/12/12 13:40:30;;;;;;;11.80;10.27;;;;;;;;;;6155626;23;20357;-84
2022/12/12 13:43:00;;;;;;;12.47;10.50;;;;;;;;;;6161404;23;20391;-83
2022/12/12 13:45:33;;;;;;;12.60;9.80;;;;;;;;;;6162855;23;20702;-82
2022/12/12 13:48:00;;;;;;;14.27;10.30;;;;;;;;;;6121939;23;20388;-82
2022/12/12 13:50:26;;;;;;;14.33;10.00;;;;;;;;;;6147135;23;20411;-81
2022/12/12 13:53:15;;;;;;;11.87;10.50;;;;;;;;;;6149376;23;20388;-81
2022/12/12 13:55:41;;;;;;;11.77;10.20;;;;;;;;;;6141662;23;20391;-78
2022/12/12 13:58:19;;;;;;;16.27;11.57;;;;;;;;;;6157895;23;20345;-80
2022/12/12 14:00:50;;;;;;;16.33;10.30;;;;;;;;;;6143843;23;20467;-82
2022/12/12 14:03:46;;;;;;;22.53;10.97;;;;;;;;;;6160719;23;20470;-90
2022/12/12 14:06:31;;;;;;;12.67;9.97;;;;;;;;;;6100879;23;20904;-90
2022/12/12 14:09:38;;;;;;;21.20;9.90;;;;;;;;;;6155954;23;20395;-90
2022/12/12 14:12:46;;;;;;;;;;;;;;;;;;;;;
2022/12/12 14:15:34;;;;;;;11.20;7.90;;;;;;;;;;6191018;23;20391;-91
2022/12/12 14:18:33;;;;;;;13.43;10.47;;;;;;;;;;6165431;23;20418;-92
2022/12/12 14:21:02;;;;;;;12.80;10.00;;;;;;;;;;6165235;23;20379;-88
2022/12/12 14:23:40;;;;;;;16.47;10.20;;;;;;;;;;6163737;23;20426;-86
2022/12/12 14:26:26;;;;;;;10.50;9.40;;;;;;;;;;6163809;23;20387;-86
2022/12/12 14:29:24;;;;;;;17.03;10.17;;;;;;;;;;6167344;23;20230;-88
2022/12/12 14:32:10;;;;;;;13.00;9.17;;;;;;;;;;6127156;23;20457;-85
2022/12/12 14:34:45;;;;;;;14.77;9.67;;;;;;;;;;6165306;23;20478;-89
2022/12/12 14:37:32;;;;;;;12.02;9.00;;;;;;;;;;6154416;23;20382;-88
2022/12/12 14:40:19;;;;;;;16.80;10.40;;;;;;;;;;6155737;23;20439;-86
2022/12/12 14:42:48;;;;;;;17.57;10.80;;;;;;;;;;6148223;23;20477;-86
2022/12/12 14:45:30;;;;;;;14.50;9.43;;;;;;;;;;6170851;23;20506;-90
2022/12/12 14:48:15;;;;;;;13.25;9.27;;;;;;;;;;6161839;23;20428;-88
2022/12/12 14:51:26;;;;;;;14.40;8.63;;;;;;;;;;6160619;23;20187;-89
2022/12/12 14:53:59;;;;;;;14.25;10.30;;;;;;;;;;6133884;23;20209;-90
2022/12/12 14:56:40;;;;;;;17.17;11.02;;;;;;;;;;6159140;23;20222;-88
2022/12/12 14:59:15;;;;;;;15.57;10.68;;;;;;;;;;6191743;23;20163;-90
2022/12/12 15:01:51;;;;;;;19.63;12.00;;;;;;;;;;6162243;23;20237;-93
2022/12/12 15:04:25;;;;;;;13.73;10.65;;;;;;;;;;6158580;23;20179;-87
2022/12/12 15:06:55;;;;;;;15.60;10.75;;;;;;;;;;6155024;23;20159;-88
2022/12/12 15:09:32;;;;;;;9.15;7.70;;;;;;;;;;6150427;23;20242;-90
2022/12/12 15:12:14;;;;;;;;;;;;;;;;;;;;;
2022/12/12 15:14:47;;;;;;;13.27;9.82;;;;;;;;;;6179409;23;20239;-89
2022/12/12 15:17:18;;;;;;;16.25;9.68;;;;;;;;;;6155325;23;20251;-88
2022/12/12 15:19:52;;;;;;;17.73;10.02;;;;;;;;;;6147881;23;20278;-89
2022/12/12 15:22:26;;;;;;;14.98;10.07;;;;;;;;;;6158826;23;20186;-90
2022/12/12 15:24:53;;;;;;;15.73;9.63;;;;;;;;;;6155990;23;20191;-88